Maryland Heights, Missouri
Current Conditions -  °F | °C
As of 2:12 AM on Monday 24 Nov 2014 (Local Time) from KSTL Reporting Station
Light Rain Light Rain  
Wind Chill: 38°   Ceiling: 7500
Heat Index: 46°   Visibility: 10mi
Dew Point: 43°   Wind: 23mph
Humidity: 87%   Direction: 300°WNW
Pressure: 29.24"   Gusts: 32mph
Location:  38.72°N, 90.44°W
Report Text: KSTL 240812Z 30020G28KT 10SM -RA SCT011 BKN075 OVC110 08/06 A2924 RMK AO2 PK WND 31028/0812 P0000
Loading
Personal Weather Stations






























Interactive Weather Map New forecast layout! Learn more

10-Day Weather Forecast

Advertisements
Track Severe Weather on mobile